sensor_id;sensor_type;location;lat;lon;timestamp;P1;durP1;ratioP1;P2;durP2;ratioP2
9972;SDS011;5027;53.560;10.062;2022-12-01T00:01:05;47.03;;;41.23;;
9972;SDS011;5027;53.560;10.062;2022-12-01T00:03:33;48.90;;;41.80;;
9972;SDS011;5027;53.560;10.062;2022-12-01T00:06:01;50.27;;;42.73;;
9972;SDS011;5027;53.560;10.062;2022-12-01T00:08:33;51.87;;;43.73;;
9972;SDS011;5027;53.560;10.062;2022-12-01T00:11:07;51.47;;;44.53;;
9972;SDS011;5027;53.560;10.062;2022-12-01T00:13:35;52.80;;;42.57;;
9972;SDS011;5027;53.560;10.062;2022-12-01T00:16:11;50.57;;;42.23;;
9972;SDS011;5027;53.560;10.062;2022-12-01T00:18:39;57.93;;;43.90;;
9972;SDS011;5027;53.560;10.062;2022-12-01T00:21:07;49.80;;;42.50;;
9972;SDS011;5027;53.560;10.062;2022-12-01T00:23:41;52.77;;;43.33;;
9972;SDS011;5027;53.560;10.062;2022-12-01T00:26:12;53.77;;;41.80;;
9972;SDS011;5027;53.560;10.062;2022-12-01T00:28:39;53.20;;;42.97;;
9972;SDS011;5027;53.560;10.062;2022-12-01T00:31:07;48.87;;;42.43;;
9972;SDS011;5027;53.560;10.062;2022-12-01T00:33:34;48.77;;;41.80;;
9972;SDS011;5027;53.560;10.062;2022-12-01T00:36:02;51.90;;;43.63;;
9972;SDS011;5027;53.560;10.062;2022-12-01T00:38:30;51.43;;;41.80;;
9972;SDS011;5027;53.560;10.062;2022-12-01T00:40:57;52.70;;;43.93;;
9972;SDS011;5027;53.560;10.062;2022-12-01T00:43:23;52.70;;;42.13;;
9972;SDS011;5027;53.560;10.062;2022-12-01T00:45:50;50.63;;;43.80;;
9972;SDS011;5027;53.560;10.062;2022-12-01T00:48:19;49.87;;;42.93;;
9972;SDS011;5027;53.560;10.062;2022-12-01T00:50:46;48.67;;;43.20;;
9972;SDS011;5027;53.560;10.062;2022-12-01T00:53:13;51.87;;;42.27;;
9972;SDS011;5027;53.560;10.062;2022-12-01T00:55:40;52.67;;;44.20;;
9972;SDS011;5027;53.560;10.062;2022-12-01T00:58:07;48.97;;;42.00;;
9972;SDS011;5027;53.560;10.062;2022-12-01T01:00:33;50.87;;;44.33;;
9972;SDS011;5027;53.560;10.062;2022-12-01T01:03:04;53.83;;;45.03;;
9972;SDS011;5027;53.560;10.062;2022-12-01T01:05:35;50.87;;;43.93;;
9972;SDS011;5027;53.560;10.062;2022-12-01T01:08:09;53.30;;;43.77;;
9972;SDS011;5027;53.560;10.062;2022-12-01T01:10:37;55.23;;;44.30;;
9972;SDS011;5027;53.560;10.062;2022-12-01T01:13:05;51.43;;;43.53;;
9972;SDS011;5027;53.560;10.062;2022-12-01T01:15:32;50.90;;;43.07;;
9972;SDS011;5027;53.560;10.062;2022-12-01T01:17:59;51.30;;;44.30;;
9972;SDS011;5027;53.560;10.062;2022-12-01T01:20:26;52.33;;;43.90;;
9972;SDS011;5027;53.560;10.062;2022-12-01T01:22:53;52.77;;;44.10;;
9972;SDS011;5027;53.560;10.062;2022-12-01T01:25:20;54.27;;;46.10;;
9972;SDS011;5027;53.560;10.062;2022-12-01T01:27:47;53.67;;;44.00;;
9972;SDS011;5027;53.560;10.062;2022-12-01T01:30:14;53.57;;;44.33;;
9972;SDS011;5027;53.560;10.062;2022-12-01T01:32:41;54.17;;;44.53;;
9972;SDS011;5027;53.560;10.062;2022-12-01T01:35:08;52.73;;;44.90;;
9972;SDS011;5027;53.560;10.062;2022-12-01T01:37:35;52.10;;;43.50;;
9972;SDS011;5027;53.560;10.062;2022-12-01T01:40:01;53.77;;;44.83;;
9972;SDS011;5027;53.560;10.062;2022-12-01T01:42:28;53.03;;;44.43;;
9972;SDS011;5027;53.560;10.062;2022-12-01T01:44:56;52.33;;;43.63;;
9972;SDS011;5027;53.560;10.062;2022-12-01T01:47:27;52.70;;;44.20;;
9972;SDS011;5027;53.560;10.062;2022-12-01T01:49:58;53.57;;;44.40;;
9972;SDS011;5027;53.560;10.062;2022-12-01T01:52:32;54.40;;;44.73;;
9972;SDS011;5027;53.560;10.062;2022-12-01T01:55:01;55.13;;;45.00;;
9972;SDS011;5027;53.560;10.062;2022-12-01T01:57:28;52.67;;;44.30;;
9972;SDS011;5027;53.560;10.062;2022-12-01T02:00:03;55.67;;;44.63;;
9972;SDS011;5027;53.560;10.062;2022-12-01T02:02:41;55.17;;;44.80;;
9972;SDS011;5027;53.560;10.062;2022-12-01T02:05:18;55.30;;;43.33;;
9972;SDS011;5027;53.560;10.062;2022-12-01T02:07:49;53.20;;;44.93;;
9972;SDS011;5027;53.560;10.062;2022-12-01T02:10:17;51.77;;;44.57;;
9972;SDS011;5027;53.560;10.062;2022-12-01T02:13:01;52.17;;;45.53;;
9972;SDS011;5027;53.560;10.062;2022-12-01T02:16:01;55.93;;;45.83;;
9972;SDS011;5027;53.560;10.062;2022-12-01T02:24:29;56.70;;;45.90;;
9972;SDS011;5027;53.560;10.062;2022-12-01T02:27:22;57.37;;;45.80;;
9972;SDS011;5027;53.560;10.062;2022-12-01T02:30:06;54.77;;;45.77;;
9972;SDS011;5027;53.560;10.062;2022-12-01T02:32:54;56.33;;;44.93;;
9972;SDS011;5027;53.560;10.062;2022-12-01T02:35:33;59.73;;;47.73;;
9972;SDS011;5027;53.560;10.062;2022-12-01T02:43:52;58.10;;;47.37;;
9972;SDS011;5027;53.560;10.062;2022-12-01T02:46:31;55.83;;;45.70;;
9972;SDS011;5027;53.560;10.062;2022-12-01T02:49:03;53.97;;;46.07;;
9972;SDS011;5027;53.560;10.062;2022-12-01T02:51:36;57.23;;;48.13;;
9972;SDS011;5027;53.560;10.062;2022-12-01T02:54:06;58.80;;;49.37;;
9972;SDS011;5027;53.560;10.062;2022-12-01T02:56:33;58.37;;;47.27;;
9972;SDS011;5027;53.560;10.062;2022-12-01T02:59:00;57.77;;;47.77;;
9972;SDS011;5027;53.560;10.062;2022-12-01T03:04:24;56.27;;;47.07;;
9972;SDS011;5027;53.560;10.062;2022-12-01T03:16:11;58.53;;;47.73;;
9972;SDS011;5027;53.560;10.062;2022-12-01T03:18:56;57.53;;;47.80;;
9972;SDS011;5027;53.560;10.062;2022-12-01T03:21:32;62.90;;;48.57;;
9972;SDS011;5027;53.560;10.062;2022-12-01T03:24:10;62.33;;;50.10;;
9972;SDS011;5027;53.560;10.062;2022-12-01T03:26:40;58.97;;;48.93;;
9972;SDS011;5027;53.560;10.062;2022-12-01T03:29:13;65.10;;;50.00;;
9972;SDS011;5027;53.560;10.062;2022-12-01T03:31:49;61.20;;;48.73;;
9972;SDS011;5027;53.560;10.062;2022-12-01T03:34:46;59.73;;;47.73;;
9972;SDS011;5027;53.560;10.062;2022-12-01T03:37:26;62.63;;;49.30;;
9972;SDS011;5027;53.560;10.062;2022-12-01T03:39:58;63.90;;;48.93;;
9972;SDS011;5027;53.560;10.062;2022-12-01T03:42:37;61.90;;;49.83;;
9972;SDS011;5027;53.560;10.062;2022-12-01T03:45:06;65.63;;;49.53;;
9972;SDS011;5027;53.560;10.062;2022-12-01T03:47:37;66.57;;;51.80;;
9972;SDS011;5027;53.560;10.062;2022-12-01T03:50:05;64.83;;;50.23;;
9972;SDS011;5027;53.560;10.062;2022-12-01T03:55:19;65.77;;;49.70;;
9972;SDS011;5027;53.560;10.062;2022-12-01T03:58:07;65.17;;;51.07;;
9972;SDS011;5027;53.560;10.062;2022-12-01T04:00:40;64.13;;;50.13;;
9972;SDS011;5027;53.560;10.062;2022-12-01T04:03:14;73.73;;;56.20;;
9972;SDS011;5027;53.560;10.062;2022-12-01T04:05:43;69.13;;;52.07;;
9972;SDS011;5027;53.560;10.062;2022-12-01T04:08:09;66.07;;;51.03;;
9972;SDS011;5027;53.560;10.062;2022-12-01T04:10:36;63.93;;;50.50;;
9972;SDS011;5027;53.560;10.062;2022-12-01T04:13:02;66.80;;;50.93;;
9972;SDS011;5027;53.560;10.062;2022-12-01T04:15:29;68.53;;;51.83;;
9972;SDS011;5027;53.560;10.062;2022-12-01T04:17:56;68.20;;;51.83;;
9972;SDS011;5027;53.560;10.062;2022-12-01T04:20:22;65.00;;;49.60;;
9972;SDS011;5027;53.560;10.062;2022-12-01T04:22:49;65.87;;;51.70;;
9972;SDS011;5027;53.560;10.062;2022-12-01T04:25:16;67.90;;;52.47;;
9972;SDS011;5027;53.560;10.062;2022-12-01T04:27:42;64.73;;;50.67;;
9972;SDS011;5027;53.560;10.062;2022-12-01T04:30:09;63.63;;;49.80;;
9972;SDS011;5027;53.560;10.062;2022-12-01T04:32:39;67.77;;;50.63;;
9972;SDS011;5027;53.560;10.062;2022-12-01T04:35:07;65.20;;;50.50;;
9972;SDS011;5027;53.560;10.062;2022-12-01T04:37:35;65.83;;;50.40;;
9972;SDS011;5027;53.560;10.062;2022-12-01T04:40:03;71.80;;;52.83;;
9972;SDS011;5027;53.560;10.062;2022-12-01T04:42:30;64.27;;;50.53;;
9972;SDS011;5027;53.560;10.062;2022-12-01T04:44:57;61.60;;;49.20;;
9972;SDS011;5027;53.560;10.062;2022-12-01T04:47:24;66.47;;;51.37;;
9972;SDS011;5027;53.560;10.062;2022-12-01T04:49:50;68.43;;;50.57;;
9972;SDS011;5027;53.560;10.062;2022-12-01T04:52:17;66.77;;;51.97;;
9972;SDS011;5027;53.560;10.062;2022-12-01T04:54:44;65.63;;;49.70;;
9972;SDS011;5027;53.560;10.062;2022-12-01T04:57:10;63.10;;;49.73;;
9972;SDS011;5027;53.560;10.062;2022-12-01T04:59:37;65.30;;;49.53;;
9972;SDS011;5027;53.560;10.062;2022-12-01T05:02:03;64.83;;;49.73;;
9972;SDS011;5027;53.560;10.062;2022-12-01T05:04:30;65.77;;;50.73;;
9972;SDS011;5027;53.560;10.062;2022-12-01T05:06:59;65.40;;;50.00;;
9972;SDS011;5027;53.560;10.062;2022-12-01T05:09:25;67.67;;;50.27;;
9972;SDS011;5027;53.560;10.062;2022-12-01T05:11:52;64.80;;;50.20;;
9972;SDS011;5027;53.560;10.062;2022-12-01T05:14:18;69.53;;;51.83;;
9972;SDS011;5027;53.560;10.062;2022-12-01T05:16:45;70.37;;;53.67;;
9972;SDS011;5027;53.560;10.062;2022-12-01T05:19:12;68.90;;;52.67;;
9972;SDS011;5027;53.560;10.062;2022-12-01T05:21:57;68.97;;;51.07;;
9972;SDS011;5027;53.560;10.062;2022-12-01T05:24:24;71.13;;;52.27;;
9972;SDS011;5027;53.560;10.062;2022-12-01T05:26:50;67.13;;;51.80;;
9972;SDS011;5027;53.560;10.062;2022-12-01T05:29:17;68.97;;;52.57;;
9972;SDS011;5027;53.560;10.062;2022-12-01T05:31:44;68.60;;;51.80;;
9972;SDS011;5027;53.560;10.062;2022-12-01T05:34:11;68.97;;;52.07;;
9972;SDS011;5027;53.560;10.062;2022-12-01T05:36:38;66.57;;;49.83;;
9972;SDS011;5027;53.560;10.062;2022-12-01T05:39:05;67.77;;;52.27;;
9972;SDS011;5027;53.560;10.062;2022-12-01T05:41:32;70.17;;;52.93;;
9972;SDS011;5027;53.560;10.062;2022-12-01T05:43:58;70.10;;;53.37;;
9972;SDS011;5027;53.560;10.062;2022-12-01T05:46:25;70.63;;;54.07;;
9972;SDS011;5027;53.560;10.062;2022-12-01T05:48:52;69.93;;;53.53;;
9972;SDS011;5027;53.560;10.062;2022-12-01T05:51:18;71.80;;;53.13;;
9972;SDS011;5027;53.560;10.062;2022-12-01T05:53:45;67.57;;;52.73;;
9972;SDS011;5027;53.560;10.062;2022-12-01T05:56:12;67.70;;;52.17;;
9972;SDS011;5027;53.560;10.062;2022-12-01T05:58:39;68.33;;;50.63;;
9972;SDS011;5027;53.560;10.062;2022-12-01T06:01:05;71.43;;;51.93;;
9972;SDS011;5027;53.560;10.062;2022-12-01T06:03:32;70.30;;;52.73;;
9972;SDS011;5027;53.560;10.062;2022-12-01T06:06:00;69.97;;;54.20;;
9972;SDS011;5027;53.560;10.062;2022-12-01T06:08:26;71.33;;;52.83;;
9972;SDS011;5027;53.560;10.062;2022-12-01T06:10:53;71.87;;;53.90;;
9972;SDS011;5027;53.560;10.062;2022-12-01T06:13:20;74.37;;;55.70;;
9972;SDS011;5027;53.560;10.062;2022-12-01T06:15:56;70.53;;;53.83;;
9972;SDS011;5027;53.560;10.062;2022-12-01T06:18:29;72.17;;;52.80;;
9972;SDS011;5027;53.560;10.062;2022-12-01T06:20:57;72.67;;;54.27;;
9972;SDS011;5027;53.560;10.062;2022-12-01T06:23:23;72.53;;;53.13;;
9972;SDS011;5027;53.560;10.062;2022-12-01T06:25:55;68.00;;;52.00;;
9972;SDS011;5027;53.560;10.062;2022-12-01T06:28:22;69.97;;;52.33;;
9972;SDS011;5027;53.560;10.062;2022-12-01T06:30:49;70.53;;;52.87;;
9972;SDS011;5027;53.560;10.062;2022-12-01T06:33:15;69.43;;;53.90;;
9972;SDS011;5027;53.560;10.062;2022-12-01T06:35:43;74.60;;;53.33;;
9972;SDS011;5027;53.560;10.062;2022-12-01T06:38:09;72.73;;;53.53;;
9972;SDS011;5027;53.560;10.062;2022-12-01T06:40:36;72.53;;;54.27;;
9972;SDS011;5027;53.560;10.062;2022-12-01T06:43:02;68.57;;;52.23;;
9972;SDS011;5027;53.560;10.062;2022-12-01T06:45:29;69.37;;;53.73;;
9972;SDS011;5027;53.560;10.062;2022-12-01T06:47:56;69.80;;;51.40;;
9972;SDS011;5027;53.560;10.062;2022-12-01T06:50:23;72.77;;;53.00;;
9972;SDS011;5027;53.560;10.062;2022-12-01T06:52:51;72.13;;;53.97;;
9972;SDS011;5027;53.560;10.062;2022-12-01T06:55:18;69.83;;;50.90;;
9972;SDS011;5027;53.560;10.062;2022-12-01T06:57:45;64.67;;;51.30;;
9972;SDS011;5027;53.560;10.062;2022-12-01T07:00:12;69.40;;;51.93;;
9972;SDS011;5027;53.560;10.062;2022-12-01T07:02:40;68.47;;;51.70;;
9972;SDS011;5027;53.560;10.062;2022-12-01T07:05:08;71.63;;;51.50;;
9972;SDS011;5027;53.560;10.062;2022-12-01T07:07:35;71.07;;;52.03;;
9972;SDS011;5027;53.560;10.062;2022-12-01T07:10:04;66.00;;;50.80;;
9972;SDS011;5027;53.560;10.062;2022-12-01T07:12:31;67.00;;;51.20;;
9972;SDS011;5027;53.560;10.062;2022-12-01T07:14:58;67.60;;;49.93;;
9972;SDS011;5027;53.560;10.062;2022-12-01T07:17:25;68.20;;;53.03;;
9972;SDS011;5027;53.560;10.062;2022-12-01T07:19:51;68.33;;;49.83;;
9972;SDS011;5027;53.560;10.062;2022-12-01T07:22:18;72.03;;;50.00;;
9972;SDS011;5027;53.560;10.062;2022-12-01T07:24:45;68.50;;;51.00;;
9972;SDS011;5027;53.560;10.062;2022-12-01T07:27:11;72.83;;;51.47;;
9972;SDS011;5027;53.560;10.062;2022-12-01T07:29:38;70.23;;;49.70;;
9972;SDS011;5027;53.560;10.062;2022-12-01T07:32:05;69.40;;;51.80;;
9972;SDS011;5027;53.560;10.062;2022-12-01T07:34:31;66.13;;;49.27;;
9972;SDS011;5027;53.560;10.062;2022-12-01T07:36:58;66.23;;;49.10;;
9972;SDS011;5027;53.560;10.062;2022-12-01T07:39:25;69.10;;;51.73;;
9972;SDS011;5027;53.560;10.062;2022-12-01T07:41:51;65.63;;;49.53;;
9972;SDS011;5027;53.560;10.062;2022-12-01T07:44:18;65.83;;;49.50;;
9972;SDS011;5027;53.560;10.062;2022-12-01T07:46:45;69.97;;;51.37;;
9972;SDS011;5027;53.560;10.062;2022-12-01T07:49:11;70.00;;;50.57;;
9972;SDS011;5027;53.560;10.062;2022-12-01T07:51:40;73.60;;;51.47;;
9972;SDS011;5027;53.560;10.062;2022-12-01T07:54:08;72.03;;;51.53;;
9972;SDS011;5027;53.560;10.062;2022-12-01T07:56:35;67.17;;;52.47;;
9972;SDS011;5027;53.560;10.062;2022-12-01T07:59:02;69.70;;;50.73;;
9972;SDS011;5027;53.560;10.062;2022-12-01T08:01:29;71.67;;;51.63;;
9972;SDS011;5027;53.560;10.062;2022-12-01T08:03:57;65.07;;;49.10;;
9972;SDS011;5027;53.560;10.062;2022-12-01T08:06:25;67.27;;;49.23;;
9972;SDS011;5027;53.560;10.062;2022-12-01T08:08:52;69.60;;;50.83;;
9972;SDS011;5027;53.560;10.062;2022-12-01T08:11:19;62.93;;;48.30;;
9972;SDS011;5027;53.560;10.062;2022-12-01T08:13:48;64.57;;;48.70;;
9972;SDS011;5027;53.560;10.062;2022-12-01T08:16:17;68.73;;;49.50;;
9972;SDS011;5027;53.560;10.062;2022-12-01T08:18:45;65.83;;;48.17;;
9972;SDS011;5027;53.560;10.062;2022-12-01T08:21:13;63.03;;;47.27;;
9972;SDS011;5027;53.560;10.062;2022-12-01T08:23:41;61.73;;;45.37;;
9972;SDS011;5027;53.560;10.062;2022-12-01T08:26:15;61.03;;;45.47;;
9972;SDS011;5027;53.560;10.062;2022-12-01T08:28:43;63.07;;;45.90;;
9972;SDS011;5027;53.560;10.062;2022-12-01T08:31:30;59.20;;;45.17;;
9972;SDS011;5027;53.560;10.062;2022-12-01T08:33:58;57.87;;;44.90;;
9972;SDS011;5027;53.560;10.062;2022-12-01T08:36:24;59.07;;;44.30;;
9972;SDS011;5027;53.560;10.062;2022-12-01T08:38:52;59.70;;;43.60;;
9972;SDS011;5027;53.560;10.062;2022-12-01T08:41:20;58.33;;;44.47;;
9972;SDS011;5027;53.560;10.062;2022-12-01T08:43:47;58.73;;;44.27;;
9972;SDS011;5027;53.560;10.062;2022-12-01T08:46:24;56.27;;;42.30;;
9972;SDS011;5027;53.560;10.062;2022-12-01T08:48:52;57.83;;;43.77;;
9972;SDS011;5027;53.560;10.062;2022-12-01T08:51:20;33.47;;;28.50;;
9972;SDS011;5027;53.560;10.062;2022-12-01T08:53:47;56.33;;;41.77;;
9972;SDS011;5027;53.560;10.062;2022-12-01T08:56:19;55.67;;;41.83;;
9972;SDS011;5027;53.560;10.062;2022-12-01T08:58:52;57.40;;;42.37;;
9972;SDS011;5027;53.560;10.062;2022-12-01T09:01:19;54.83;;;42.00;;
9972;SDS011;5027;53.560;10.062;2022-12-01T09:03:47;57.90;;;44.17;;
9972;SDS011;5027;53.560;10.062;2022-12-01T09:06:15;58.10;;;43.97;;
9972;SDS011;5027;53.560;10.062;2022-12-01T09:08:45;61.17;;;44.60;;
9972;SDS011;5027;53.560;10.062;2022-12-01T09:11:13;64.93;;;43.83;;
9972;SDS011;5027;53.560;10.062;2022-12-01T09:13:43;60.90;;;44.83;;
9972;SDS011;5027;53.560;10.062;2022-12-01T09:16:18;60.97;;;44.43;;
9972;SDS011;5027;53.560;10.062;2022-12-01T09:18:45;56.40;;;43.40;;
9972;SDS011;5027;53.560;10.062;2022-12-01T09:21:20;62.57;;;43.60;;
9972;SDS011;5027;53.560;10.062;2022-12-01T09:23:48;60.60;;;43.60;;
9972;SDS011;5027;53.560;10.062;2022-12-01T09:26:16;59.20;;;42.50;;
9972;SDS011;5027;53.560;10.062;2022-12-01T09:28:44;58.50;;;41.70;;
9972;SDS011;5027;53.560;10.062;2022-12-01T09:31:12;54.77;;;41.27;;
9972;SDS011;5027;53.560;10.062;2022-12-01T09:33:40;54.70;;;41.30;;
9972;SDS011;5027;53.560;10.062;2022-12-01T09:36:07;49.67;;;38.77;;
9972;SDS011;5027;53.560;10.062;2022-12-01T09:38:36;53.13;;;39.70;;
9972;SDS011;5027;53.560;10.062;2022-12-01T09:41:11;50.23;;;37.90;;
9972;SDS011;5027;53.560;10.062;2022-12-01T09:46:51;47.30;;;35.97;;
9972;SDS011;5027;53.560;10.062;2022-12-01T09:52:01;49.23;;;35.47;;
9972;SDS011;5027;53.560;10.062;2022-12-01T09:54:28;48.83;;;36.30;;
9972;SDS011;5027;53.560;10.062;2022-12-01T09:56:55;55.20;;;37.63;;
9972;SDS011;5027;53.560;10.062;2022-12-01T09:59:25;50.47;;;37.50;;
9972;SDS011;5027;53.560;10.062;2022-12-01T10:02:00;49.70;;;37.40;;
9972;SDS011;5027;53.560;10.062;2022-12-01T10:04:35;49.93;;;36.17;;
9972;SDS011;5027;53.560;10.062;2022-12-01T10:07:15;48.87;;;36.37;;
9972;SDS011;5027;53.560;10.062;2022-12-01T10:09:59;52.77;;;36.90;;
9972;SDS011;5027;53.560;10.062;2022-12-01T10:12:47;51.80;;;35.37;;
9972;SDS011;5027;53.560;10.062;2022-12-01T10:18:11;45.37;;;35.60;;
9972;SDS011;5027;53.560;10.062;2022-12-01T10:26:11;46.43;;;33.00;;
9972;SDS011;5027;53.560;10.062;2022-12-01T10:34:41;44.87;;;33.87;;
9972;SDS011;5027;53.560;10.062;2022-12-01T10:37:12;45.03;;;32.30;;
9972;SDS011;5027;53.560;10.062;2022-12-01T10:39:48;46.17;;;34.27;;
9972;SDS011;5027;53.560;10.062;2022-12-01T10:44:55;50.50;;;36.57;;
9972;SDS011;5027;53.560;10.062;2022-12-01T10:47:26;47.03;;;35.20;;
9972;SDS011;5027;53.560;10.062;2022-12-01T10:49:53;48.20;;;35.93;;
9972;SDS011;5027;53.560;10.062;2022-12-01T10:52:37;47.10;;;31.40;;
9972;SDS011;5027;53.560;10.062;2022-12-01T10:55:29;41.13;;;29.90;;
9972;SDS011;5027;53.560;10.062;2022-12-01T10:57:58;38.73;;;29.23;;
9972;SDS011;5027;53.560;10.062;2022-12-01T11:00:34;42.20;;;30.83;;
9972;SDS011;5027;53.560;10.062;2022-12-01T11:03:26;42.60;;;30.20;;
9972;SDS011;5027;53.560;10.062;2022-12-01T11:05:56;46.00;;;29.83;;
9972;SDS011;5027;53.560;10.062;2022-12-01T11:08:32;48.27;;;31.47;;
9972;SDS011;5027;53.560;10.062;2022-12-01T11:11:01;44.97;;;32.10;;
9972;SDS011;5027;53.560;10.062;2022-12-01T11:13:29;48.70;;;31.20;;
9972;SDS011;5027;53.560;10.062;2022-12-01T11:15:59;46.07;;;31.60;;
9972;SDS011;5027;53.560;10.062;2022-12-01T11:18:33;46.43;;;31.77;;
9972;SDS011;5027;53.560;10.062;2022-12-01T11:21:07;46.77;;;33.43;;
9972;SDS011;5027;53.560;10.062;2022-12-01T11:23:44;48.80;;;33.67;;
9972;SDS011;5027;53.560;10.062;2022-12-01T11:26:13;48.33;;;33.53;;
9972;SDS011;5027;53.560;10.062;2022-12-01T11:28:49;48.47;;;33.53;;
9972;SDS011;5027;53.560;10.062;2022-12-01T11:31:40;50.20;;;32.43;;
9972;SDS011;5027;53.560;10.062;2022-12-01T11:34:30;51.53;;;35.13;;
9972;SDS011;5027;53.560;10.062;2022-12-01T11:37:00;47.20;;;31.77;;
9972;SDS011;5027;53.560;10.062;2022-12-01T11:39:34;45.10;;;30.93;;
9972;SDS011;5027;53.560;10.062;2022-12-01T11:42:04;45.90;;;28.70;;
9972;SDS011;5027;53.560;10.062;2022-12-01T11:44:46;41.90;;;28.93;;
9972;SDS011;5027;53.560;10.062;2022-12-01T11:47:19;40.13;;;28.30;;
9972;SDS011;5027;53.560;10.062;2022-12-01T11:49:51;43.57;;;29.60;;
9972;SDS011;5027;53.560;10.062;2022-12-01T11:54:59;39.90;;;26.90;;
9972;SDS011;5027;53.560;10.062;2022-12-01T11:57:35;36.47;;;26.90;;
9972;SDS011;5027;53.560;10.062;2022-12-01T12:00:20;35.43;;;25.10;;
9972;SDS011;5027;53.560;10.062;2022-12-01T12:03:03;33.27;;;24.67;;
9972;SDS011;5027;53.560;10.062;2022-12-01T12:05:59;36.33;;;25.03;;
9972;SDS011;5027;53.560;10.062;2022-12-01T12:11:52;34.23;;;23.93;;
9972;SDS011;5027;53.560;10.062;2022-12-01T12:14:35;36.17;;;23.50;;
9972;SDS011;5027;53.560;10.062;2022-12-01T12:20:37;38.10;;;25.20;;
9972;SDS011;5027;53.560;10.062;2022-12-01T12:26:26;40.63;;;25.60;;
9972;SDS011;5027;53.560;10.062;2022-12-01T12:34:56;41.47;;;25.83;;
9972;SDS011;5027;53.560;10.062;2022-12-01T12:37:41;45.37;;;27.17;;
9972;SDS011;5027;53.560;10.062;2022-12-01T12:45:52;47.13;;;27.97;;
9972;SDS011;5027;53.560;10.062;2022-12-01T12:52:01;44.50;;;27.07;;
9972;SDS011;5027;53.560;10.062;2022-12-01T12:54:44;48.03;;;27.83;;
9972;SDS011;5027;53.560;10.062;2022-12-01T12:57:32;45.47;;;26.37;;
9972;SDS011;5027;53.560;10.062;2022-12-01T13:00:06;44.37;;;28.20;;
9972;SDS011;5027;53.560;10.062;2022-12-01T13:05:33;45.27;;;27.07;;
9972;SDS011;5027;53.560;10.062;2022-12-01T13:08:07;44.00;;;28.37;;
9972;SDS011;5027;53.560;10.062;2022-12-01T13:13:26;38.97;;;25.13;;
9972;SDS011;5027;53.560;10.062;2022-12-01T13:16:04;45.87;;;25.30;;
9972;SDS011;5027;53.560;10.062;2022-12-01T13:18:48;43.37;;;25.00;;
9972;SDS011;5027;53.560;10.062;2022-12-01T13:21:21;42.07;;;23.67;;
9972;SDS011;5027;53.560;10.062;2022-12-01T13:23:50;47.33;;;25.40;;
9972;SDS011;5027;53.560;10.062;2022-12-01T13:26:18;45.10;;;26.03;;
9972;SDS011;5027;53.560;10.062;2022-12-01T13:28:55;40.07;;;23.23;;
9972;SDS011;5027;53.560;10.062;2022-12-01T13:31:23;36.33;;;21.50;;
9972;SDS011;5027;53.560;10.062;2022-12-01T13:36:24;34.30;;;21.43;;
9972;SDS011;5027;53.560;10.062;2022-12-01T13:39:22;34.40;;;21.47;;
9972;SDS011;5027;53.560;10.062;2022-12-01T13:45:14;34.13;;;19.87;;
9972;SDS011;5027;53.560;10.062;2022-12-01T14:03:58;34.27;;;18.90;;
9972;SDS011;5027;53.560;10.062;2022-12-01T14:09:29;31.80;;;18.83;;
9972;SDS011;5027;53.560;10.062;2022-12-01T14:12:02;30.27;;;18.23;;
9972;SDS011;5027;53.560;10.062;2022-12-01T14:14:35;31.50;;;19.20;;
9972;SDS011;5027;53.560;10.062;2022-12-01T14:17:04;34.70;;;19.67;;
9972;SDS011;5027;53.560;10.062;2022-12-01T14:19:32;35.73;;;20.10;;
9972;SDS011;5027;53.560;10.062;2022-12-01T14:22:03;35.37;;;19.33;;
9972;SDS011;5027;53.560;10.062;2022-12-01T14:24:35;32.10;;;19.47;;
9972;SDS011;5027;53.560;10.062;2022-12-01T14:27:06;34.97;;;20.63;;
9972;SDS011;5027;53.560;10.062;2022-12-01T14:29:36;34.80;;;20.30;;
9972;SDS011;5027;53.560;10.062;2022-12-01T14:34:34;34.20;;;20.67;;
9972;SDS011;5027;53.560;10.062;2022-12-01T14:40:04;39.23;;;20.40;;
9972;SDS011;5027;53.560;10.062;2022-12-01T14:42:37;38.63;;;22.47;;
9972;SDS011;5027;53.560;10.062;2022-12-01T14:48:25;43.93;;;22.50;;
9972;SDS011;5027;53.560;10.062;2022-12-01T14:53:51;31.57;;;20.43;;
9972;SDS011;5027;53.560;10.062;2022-12-01T14:56:21;37.97;;;21.00;;
9972;SDS011;5027;53.560;10.062;2022-12-01T14:58:52;36.47;;;21.50;;
9972;SDS011;5027;53.560;10.062;2022-12-01T15:01:24;35.40;;;20.60;;
9972;SDS011;5027;53.560;10.062;2022-12-01T15:03:57;43.03;;;23.27;;
9972;SDS011;5027;53.560;10.062;2022-12-01T15:06:26;34.93;;;20.67;;
9972;SDS011;5027;53.560;10.062;2022-12-01T15:09:09;36.30;;;20.87;;
9972;SDS011;5027;53.560;10.062;2022-12-01T15:11:59;35.50;;;22.03;;
9972;SDS011;5027;53.560;10.062;2022-12-01T15:14:28;33.43;;;21.00;;
9972;SDS011;5027;53.560;10.062;2022-12-01T15:17:00;31.93;;;19.47;;
9972;SDS011;5027;53.560;10.062;2022-12-01T15:22:15;33.50;;;20.60;;
9972;SDS011;5027;53.560;10.062;2022-12-01T15:24:43;30.10;;;19.47;;
9972;SDS011;5027;53.560;10.062;2022-12-01T15:27:27;33.33;;;20.23;;
9972;SDS011;5027;53.560;10.062;2022-12-01T15:29:55;33.67;;;19.03;;
9972;SDS011;5027;53.560;10.062;2022-12-01T15:32:23;26.77;;;18.30;;
9972;SDS011;5027;53.560;10.062;2022-12-01T15:34:51;28.87;;;18.10;;
9972;SDS011;5027;53.560;10.062;2022-12-01T15:37:20;28.90;;;18.93;;
9972;SDS011;5027;53.560;10.062;2022-12-01T15:39:48;32.77;;;20.13;;
9972;SDS011;5027;53.560;10.062;2022-12-01T15:42:41;31.20;;;18.93;;
9972;SDS011;5027;53.560;10.062;2022-12-01T15:45:16;30.70;;;18.97;;
9972;SDS011;5027;53.560;10.062;2022-12-01T15:47:45;33.97;;;20.37;;
9972;SDS011;5027;53.560;10.062;2022-12-01T15:56:14;32.90;;;20.57;;
9972;SDS011;5027;53.560;10.062;2022-12-01T15:58:43;33.00;;;20.63;;
9972;SDS011;5027;53.560;10.062;2022-12-01T16:01:15;36.13;;;22.33;;
9972;SDS011;5027;53.560;10.062;2022-12-01T16:03:48;38.37;;;23.60;;
9972;SDS011;5027;53.560;10.062;2022-12-01T16:06:20;41.60;;;24.27;;
9972;SDS011;5027;53.560;10.062;2022-12-01T16:08:51;36.57;;;21.83;;
9972;SDS011;5027;53.560;10.062;2022-12-01T16:11:21;40.67;;;23.13;;
9972;SDS011;5027;53.560;10.062;2022-12-01T16:16:35;44.77;;;24.63;;
9972;SDS011;5027;53.560;10.062;2022-12-01T16:21:44;40.90;;;24.17;;
9972;SDS011;5027;53.560;10.062;2022-12-01T16:24:20;35.93;;;22.67;;
9972;SDS011;5027;53.560;10.062;2022-12-01T16:26:58;40.97;;;23.63;;
9972;SDS011;5027;53.560;10.062;2022-12-01T16:29:28;41.70;;;24.13;;
9972;SDS011;5027;53.560;10.062;2022-12-01T16:32:07;41.50;;;25.47;;
9972;SDS011;5027;53.560;10.062;2022-12-01T16:34:51;44.70;;;24.47;;
9972;SDS011;5027;53.560;10.062;2022-12-01T16:37:18;46.03;;;25.87;;
9972;SDS011;5027;53.560;10.062;2022-12-01T16:39:46;48.30;;;25.57;;
9972;SDS011;5027;53.560;10.062;2022-12-01T16:42:15;51.33;;;28.13;;
9972;SDS011;5027;53.560;10.062;2022-12-01T16:44:43;50.27;;;28.73;;
9972;SDS011;5027;53.560;10.062;2022-12-01T16:47:17;57.03;;;29.53;;
9972;SDS011;5027;53.560;10.062;2022-12-01T16:49:46;65.50;;;31.83;;
9972;SDS011;5027;53.560;10.062;2022-12-01T16:52:13;59.07;;;31.83;;
9972;SDS011;5027;53.560;10.062;2022-12-01T16:55:00;69.20;;;33.93;;
9972;SDS011;5027;53.560;10.062;2022-12-01T16:57:27;62.40;;;32.53;;
9972;SDS011;5027;53.560;10.062;2022-12-01T16:59:53;68.03;;;34.30;;
9972;SDS011;5027;53.560;10.062;2022-12-01T17:02:20;65.53;;;32.70;;
9972;SDS011;5027;53.560;10.062;2022-12-01T17:04:47;68.30;;;33.70;;
9972;SDS011;5027;53.560;10.062;2022-12-01T17:07:14;63.97;;;32.63;;
9972;SDS011;5027;53.560;10.062;2022-12-01T17:09:40;69.17;;;35.20;;